sensor_id;sensor_type;location;lat;lon;timestamp;temperature;humidity
21815;DHT22;11069;48.988;8.450;2024-01-30T00:02:15;0.80;99.90
21815;DHT22;11069;48.988;8.450;2024-01-30T00:04:40;0.80;99.90
21815;DHT22;11069;48.988;8.450;2024-01-30T00:07:06;0.80;99.90
21815;DHT22;11069;48.988;8.450;2024-01-30T00:09:31;0.70;99.90
21815;DHT22;11069;48.988;8.450;2024-01-30T00:11:57;0.80;99.90
21815;DHT22;11069;48.988;8.450;2024-01-30T00:14:22;0.70;99.90
21815;DHT22;11069;48.988;8.450;2024-01-30T00:16:48;0.60;99.90
21815;DHT22;11069;48.988;8.450;2024-01-30T00:19:14;0.50;99.90
21815;DHT22;11069;48.988;8.450;2024-01-30T00:21:40;0.40;99.90
21815;DHT22;11069;48.988;8.450;2024-01-30T00:24:06;0.50;99.90
21815;DHT22;11069;48.988;8.450;2024-01-30T00:26:31;0.40;99.90
21815;DHT22;11069;48.988;8.450;2024-01-30T00:28:57;0.50;99.90
21815;DHT22;11069;48.988;8.450;2024-01-30T00:31:23;0.50;99.90
21815;DHT22;11069;48.988;8.450;2024-01-30T00:33:48;0.50;99.90
21815;DHT22;11069;48.988;8.450;2024-01-30T00:36:14;0.40;99.90
21815;DHT22;11069;48.988;8.450;2024-01-30T00:38:39;0.50;99.90
21815;DHT22;11069;48.988;8.450;2024-01-30T00:41:07;0.40;99.90
21815;DHT22;11069;48.988;8.450;2024-01-30T00:43:33;0.30;99.90
21815;DHT22;11069;48.988;8.450;2024-01-30T00:45:59;0.40;99.90
21815;DHT22;11069;48.988;8.450;2024-01-30T00:48:24;0.40;99.90
21815;DHT22;11069;48.988;8.450;2024-01-30T00:50:50;0.50;99.90
21815;DHT22;11069;48.988;8.450;2024-01-30T00:53:16;0.40;99.90
21815;DHT22;11069;48.988;8.450;2024-01-30T00:55:41;0.40;99.90
21815;DHT22;11069;48.988;8.450;2024-01-30T00:58:07;0.40;99.90
21815;DHT22;11069;48.988;8.450;2024-01-30T01:00:33;0.40;99.90
21815;DHT22;11069;48.988;8.450;2024-01-30T01:02:59;0.40;99.90
21815;DHT22;11069;48.988;8.450;2024-01-30T01:05:25;0.40;99.90
21815;DHT22;11069;48.988;8.450;2024-01-30T01:07:50;0.30;99.90
21815;DHT22;11069;48.988;8.450;2024-01-30T01:10:17;0.40;99.90
21815;DHT22;11069;48.988;8.450;2024-01-30T01:12:43;0.40;99.90
21815;DHT22;11069;48.988;8.450;2024-01-30T01:15:09;0.30;99.90
21815;DHT22;11069;48.988;8.450;2024-01-30T01:17:38;0.40;99.90
21815;DHT22;11069;48.988;8.450;2024-01-30T01:20:05;0.30;99.90
21815;DHT22;11069;48.988;8.450;2024-01-30T01:22:31;0.40;99.90
21815;DHT22;11069;48.988;8.450;2024-01-30T01:24:58;0.50;99.90
21815;DHT22;11069;48.988;8.450;2024-01-30T01:27:23;0.50;99.90
21815;DHT22;11069;48.988;8.450;2024-01-30T01:29:49;0.60;99.90
21815;DHT22;11069;48.988;8.450;2024-01-30T01:32:14;0.50;99.90
21815;DHT22;11069;48.988;8.450;2024-01-30T01:34:40;0.60;99.90
21815;DHT22;11069;48.988;8.450;2024-01-30T01:37:06;0.50;99.90
21815;DHT22;11069;48.988;8.450;2024-01-30T01:39:32;0.40;99.90
21815;DHT22;11069;48.988;8.450;2024-01-30T01:41:58;0.40;99.90
21815;DHT22;11069;48.988;8.450;2024-01-30T01:44:24;0.30;99.90
21815;DHT22;11069;48.988;8.450;2024-01-30T01:46:50;0.40;99.90
21815;DHT22;11069;48.988;8.450;2024-01-30T01:49:16;0.30;99.90
21815;DHT22;11069;48.988;8.450;2024-01-30T01:51:43;0.30;99.90
21815;DHT22;11069;48.988;8.450;2024-01-30T01:54:10;0.30;99.90
21815;DHT22;11069;48.988;8.450;2024-01-30T01:56:36;0.40;99.90
21815;DHT22;11069;48.988;8.450;2024-01-30T01:59:07;0.30;99.90
21815;DHT22;11069;48.988;8.450;2024-01-30T02:01:34;0.40;99.90
21815;DHT22;11069;48.988;8.450;2024-01-30T02:04:00;0.40;99.90
21815;DHT22;11069;48.988;8.450;2024-01-30T02:06:27;0.30;99.90
21815;DHT22;11069;48.988;8.450;2024-01-30T02:08:53;0.30;99.90
21815;DHT22;11069;48.988;8.450;2024-01-30T02:11:20;0.40;99.90
21815;DHT22;11069;48.988;8.450;2024-01-30T02:13:46;0.30;99.90
21815;DHT22;11069;48.988;8.450;2024-01-30T02:16:11;0.20;99.90
21815;DHT22;11069;48.988;8.450;2024-01-30T02:18:37;0.20;99.90
21815;DHT22;11069;48.988;8.450;2024-01-30T02:21:07;0.20;99.90
21815;DHT22;11069;48.988;8.450;2024-01-30T02:23:34;0.20;99.90
21815;DHT22;11069;48.988;8.450;2024-01-30T02:26:00;0.20;99.90
21815;DHT22;11069;48.988;8.450;2024-01-30T02:28:26;0.10;99.90
21815;DHT22;11069;48.988;8.450;2024-01-30T02:30:53;0.20;99.90
21815;DHT22;11069;48.988;8.450;2024-01-30T02:33:18;0.10;99.90
21815;DHT22;11069;48.988;8.450;2024-01-30T02:35:44;0.10;99.90
21815;DHT22;11069;48.988;8.450;2024-01-30T02:38:09;0.10;99.90
21815;DHT22;11069;48.988;8.450;2024-01-30T02:40:35;0.00;99.90
21815;DHT22;11069;48.988;8.450;2024-01-30T02:43:02;0.00;99.90
21815;DHT22;11069;48.988;8.450;2024-01-30T02:45:28;0.00;99.90
21815;DHT22;11069;48.988;8.450;2024-01-30T02:47:53;0.00;99.90
21815;DHT22;11069;48.988;8.450;2024-01-30T02:50:19;0.10;99.90
21815;DHT22;11069;48.988;8.450;2024-01-30T02:52:45;0.10;99.90
21815;DHT22;11069;48.988;8.450;2024-01-30T02:55:11;0.10;99.90
21815;DHT22;11069;48.988;8.450;2024-01-30T02:57:37;0.00;99.90
21815;DHT22;11069;48.988;8.450;2024-01-30T03:00:03;0.00;99.90
21815;DHT22;11069;48.988;8.450;2024-01-30T03:02:31;0.00;99.90
21815;DHT22;11069;48.988;8.450;2024-01-30T03:04:57;0.00;99.90
21815;DHT22;11069;48.988;8.450;2024-01-30T03:07:22;-0.10;99.90
21815;DHT22;11069;48.988;8.450;2024-01-30T03:09:48;-0.10;99.90
21815;DHT22;11069;48.988;8.450;2024-01-30T03:12:13;-0.20;99.90
21815;DHT22;11069;48.988;8.450;2024-01-30T03:14:39;-0.30;99.90
21815;DHT22;11069;48.988;8.450;2024-01-30T03:17:05;-0.30;99.90
21815;DHT22;11069;48.988;8.450;2024-01-30T03:19:30;-0.20;99.90
21815;DHT22;11069;48.988;8.450;2024-01-30T03:21:56;-0.20;99.90
21815;DHT22;11069;48.988;8.450;2024-01-30T03:24:21;-0.20;99.90
21815;DHT22;11069;48.988;8.450;2024-01-30T03:26:47;-0.20;99.90
21815;DHT22;11069;48.988;8.450;2024-01-30T03:29:12;-0.30;99.90
21815;DHT22;11069;48.988;8.450;2024-01-30T03:31:39;-0.30;99.90
21815;DHT22;11069;48.988;8.450;2024-01-30T03:34:04;-0.40;99.90
21815;DHT22;11069;48.988;8.450;2024-01-30T03:36:30;-0.30;99.90
21815;DHT22;11069;48.988;8.450;2024-01-30T03:38:58;-0.30;99.90
21815;DHT22;11069;48.988;8.450;2024-01-30T03:41:24;-0.30;99.90
21815;DHT22;11069;48.988;8.450;2024-01-30T03:43:49;-0.30;99.90
21815;DHT22;11069;48.988;8.450;2024-01-30T03:46:15;-0.30;99.90
21815;DHT22;11069;48.988;8.450;2024-01-30T03:48:41;-0.30;99.90
21815;DHT22;11069;48.988;8.450;2024-01-30T03:51:06;-0.30;99.90
21815;DHT22;11069;48.988;8.450;2024-01-30T03:53:32;-0.30;99.90
21815;DHT22;11069;48.988;8.450;2024-01-30T03:55:58;-0.30;99.90
21815;DHT22;11069;48.988;8.450;2024-01-30T03:58:23;-0.20;99.90
21815;DHT22;11069;48.988;8.450;2024-01-30T04:00:49;-0.20;99.90
21815;DHT22;11069;48.988;8.450;2024-01-30T04:03:15;-0.30;99.90
21815;DHT22;11069;48.988;8.450;2024-01-30T04:05:43;-0.30;99.90
21815;DHT22;11069;48.988;8.450;2024-01-30T04:08:09;-0.30;99.90
21815;DHT22;11069;48.988;8.450;2024-01-30T04:10:35;-0.30;99.90
21815;DHT22;11069;48.988;8.450;2024-01-30T04:13:00;-0.30;99.90
21815;DHT22;11069;48.988;8.450;2024-01-30T04:15:26;-0.30;99.90
21815;DHT22;11069;48.988;8.450;2024-01-30T04:17:52;-0.30;99.90
21815;DHT22;11069;48.988;8.450;2024-01-30T04:20:18;-0.30;99.90
21815;DHT22;11069;48.988;8.450;2024-01-30T04:22:47;-0.30;99.90
21815;DHT22;11069;48.988;8.450;2024-01-30T04:25:13;-0.40;99.90
21815;DHT22;11069;48.988;8.450;2024-01-30T04:27:39;-0.30;99.90
21815;DHT22;11069;48.988;8.450;2024-01-30T04:30:05;-0.30;99.90
21815;DHT22;11069;48.988;8.450;2024-01-30T04:32:31;-0.40;99.90
21815;DHT22;11069;48.988;8.450;2024-01-30T04:34:57;-0.40;99.90
21815;DHT22;11069;48.988;8.450;2024-01-30T04:37:23;-0.40;99.90
21815;DHT22;11069;48.988;8.450;2024-01-30T04:39:48;-0.40;99.90
21815;DHT22;11069;48.988;8.450;2024-01-30T04:42:14;-0.30;99.90
21815;DHT22;11069;48.988;8.450;2024-01-30T04:44:40;-0.30;99.90
21815;DHT22;11069;48.988;8.450;2024-01-30T04:47:05;-0.40;99.90
21815;DHT22;11069;48.988;8.450;2024-01-30T04:49:34;-0.30;99.90
21815;DHT22;11069;48.988;8.450;2024-01-30T04:52:00;-0.40;99.90
21815;DHT22;11069;48.988;8.450;2024-01-30T04:54:25;-0.50;99.90
21815;DHT22;11069;48.988;8.450;2024-01-30T04:56:51;-0.40;99.90
21815;DHT22;11069;48.988;8.450;2024-01-30T04:59:17;-0.30;99.90
21815;DHT22;11069;48.988;8.450;2024-01-30T05:01:42;-0.30;99.90
21815;DHT22;11069;48.988;8.450;2024-01-30T05:04:08;-0.30;99.90
21815;DHT22;11069;48.988;8.450;2024-01-30T05:06:34;-0.30;99.90
21815;DHT22;11069;48.988;8.450;2024-01-30T05:09:00;-0.30;99.90
21815;DHT22;11069;48.988;8.450;2024-01-30T05:11:25;-0.30;99.90
21815;DHT22;11069;48.988;8.450;2024-01-30T05:13:51;-0.30;99.90
21815;DHT22;11069;48.988;8.450;2024-01-30T05:16:16;-0.30;99.90
21815;DHT22;11069;48.988;8.450;2024-01-30T05:18:42;-0.40;99.90
21815;DHT22;11069;48.988;8.450;2024-01-30T05:21:07;-0.40;99.90
21815;DHT22;11069;48.988;8.450;2024-01-30T05:23:33;-0.40;99.90
21815;DHT22;11069;48.988;8.450;2024-01-30T05:25:59;-0.50;99.90
21815;DHT22;11069;48.988;8.450;2024-01-30T05:28:26;-0.40;99.90
21815;DHT22;11069;48.988;8.450;2024-01-30T05:30:52;-0.30;99.90
21815;DHT22;11069;48.988;8.450;2024-01-30T05:33:17;-0.40;99.90
21815;DHT22;11069;48.988;8.450;2024-01-30T05:35:43;-0.40;99.90
21815;DHT22;11069;48.988;8.450;2024-01-30T05:38:08;-0.30;99.90
21815;DHT22;11069;48.988;8.450;2024-01-30T05:40:34;-0.30;99.90
21815;DHT22;11069;48.988;8.450;2024-01-30T05:42:59;-0.40;99.90
21815;DHT22;11069;48.988;8.450;2024-01-30T05:45:27;-0.40;99.90
21815;DHT22;11069;48.988;8.450;2024-01-30T05:47:53;-0.40;99.90
21815;DHT22;11069;48.988;8.450;2024-01-30T05:50:19;-0.30;99.90
21815;DHT22;11069;48.988;8.450;2024-01-30T05:52:45;-0.30;99.90
21815;DHT22;11069;48.988;8.450;2024-01-30T05:55:11;-0.30;99.90
21815;DHT22;11069;48.988;8.450;2024-01-30T05:57:37;-0.40;99.90
21815;DHT22;11069;48.988;8.450;2024-01-30T06:00:04;-0.30;99.90
21815;DHT22;11069;48.988;8.450;2024-01-30T06:02:30;-0.30;99.90
21815;DHT22;11069;48.988;8.450;2024-01-30T06:04:56;-0.40;99.90
21815;DHT22;11069;48.988;8.450;2024-01-30T06:07:22;-0.30;99.90
21815;DHT22;11069;48.988;8.450;2024-01-30T06:09:47;-0.20;99.90
21815;DHT22;11069;48.988;8.450;2024-01-30T06:12:13;-0.20;99.90
21815;DHT22;11069;48.988;8.450;2024-01-30T06:14:39;-0.20;99.90
21815;DHT22;11069;48.988;8.450;2024-01-30T06:17:04;-0.20;99.90
21815;DHT22;11069;48.988;8.450;2024-01-30T06:19:30;-0.40;99.90
21815;DHT22;11069;48.988;8.450;2024-01-30T06:21:59;-0.30;99.90
21815;DHT22;11069;48.988;8.450;2024-01-30T06:24:24;-0.40;99.90
21815;DHT22;11069;48.988;8.450;2024-01-30T06:26:50;-0.40;99.90
21815;DHT22;11069;48.988;8.450;2024-01-30T06:29:15;-0.50;99.90
21815;DHT22;11069;48.988;8.450;2024-01-30T06:31:42;-0.40;99.90
21815;DHT22;11069;48.988;8.450;2024-01-30T06:34:09;-0.40;99.90
21815;DHT22;11069;48.988;8.450;2024-01-30T06:36:34;-0.40;99.90
21815;DHT22;11069;48.988;8.450;2024-01-30T06:39:01;-0.40;99.90
21815;DHT22;11069;48.988;8.450;2024-01-30T06:41:27;-0.40;99.90
21815;DHT22;11069;48.988;8.450;2024-01-30T06:43:52;-0.40;99.90
21815;DHT22;11069;48.988;8.450;2024-01-30T06:46:18;-0.40;99.90
21815;DHT22;11069;48.988;8.450;2024-01-30T06:48:43;-0.40;99.90
21815;DHT22;11069;48.988;8.450;2024-01-30T06:51:11;-0.50;99.90
21815;DHT22;11069;48.988;8.450;2024-01-30T06:53:37;-0.50;99.90
21815;DHT22;11069;48.988;8.450;2024-01-30T06:56:02;-0.50;99.90
21815;DHT22;11069;48.988;8.450;2024-01-30T06:58:28;-0.40;99.90
21815;DHT22;11069;48.988;8.450;2024-01-30T07:00:54;-0.50;99.90
21815;DHT22;11069;48.988;8.450;2024-01-30T07:03:20;-0.50;99.90
21815;DHT22;11069;48.988;8.450;2024-01-30T07:05:46;-0.50;99.90
21815;DHT22;11069;48.988;8.450;2024-01-30T07:08:11;-0.50;99.90
21815;DHT22;11069;48.988;8.450;2024-01-30T07:10:37;-0.40;99.90
21815;DHT22;11069;48.988;8.450;2024-01-30T07:13:02;-0.40;99.90
21815;DHT22;11069;48.988;8.450;2024-01-30T07:15:30;-0.40;99.90
21815;DHT22;11069;48.988;8.450;2024-01-30T07:17:56;-0.40;99.90
21815;DHT22;11069;48.988;8.450;2024-01-30T07:20:21;-0.30;99.90
21815;DHT22;11069;48.988;8.450;2024-01-30T07:22:47;-0.20;99.90
21815;DHT22;11069;48.988;8.450;2024-01-30T07:25:13;-0.10;99.90
21815;DHT22;11069;48.988;8.450;2024-01-30T07:27:38;-0.10;99.90
21815;DHT22;11069;48.988;8.450;2024-01-30T07:30:05;-0.10;99.90
21815;DHT22;11069;48.988;8.450;2024-01-30T07:32:31;-0.10;99.90
21815;DHT22;11069;48.988;8.450;2024-01-30T07:34:57;0.00;99.90
21815;DHT22;11069;48.988;8.450;2024-01-30T07:37:22;0.10;99.90
21815;DHT22;11069;48.988;8.450;2024-01-30T07:39:51;0.20;99.90
21815;DHT22;11069;48.988;8.450;2024-01-30T07:42:16;0.30;99.90
21815;DHT22;11069;48.988;8.450;2024-01-30T07:44:43;0.40;99.90
21815;DHT22;11069;48.988;8.450;2024-01-30T07:47:08;0.50;99.90
21815;DHT22;11069;48.988;8.450;2024-01-30T07:49:34;0.70;99.90
21815;DHT22;11069;48.988;8.450;2024-01-30T07:52:00;0.80;99.90
21815;DHT22;11069;48.988;8.450;2024-01-30T07:54:25;0.90;99.90
21815;DHT22;11069;48.988;8.450;2024-01-30T07:56:51;1.10;99.90
21815;DHT22;11069;48.988;8.450;2024-01-30T07:59:17;1.20;99.90
21815;DHT22;11069;48.988;8.450;2024-01-30T08:01:44;1.50;99.90
21815;DHT22;11069;48.988;8.450;2024-01-30T08:04:10;1.60;99.90
21815;DHT22;11069;48.988;8.450;2024-01-30T08:06:35;1.80;99.90
21815;DHT22;11069;48.988;8.450;2024-01-30T08:09:01;1.90;99.90
21815;DHT22;11069;48.988;8.450;2024-01-30T08:11:27;2.00;99.90
21815;DHT22;11069;48.988;8.450;2024-01-30T08:13:55;2.10;99.90
21815;DHT22;11069;48.988;8.450;2024-01-30T08:16:20;2.20;99.90
21815;DHT22;11069;48.988;8.450;2024-01-30T08:18:46;2.40;99.90
21815;DHT22;11069;48.988;8.450;2024-01-30T08:21:11;2.70;99.90
21815;DHT22;11069;48.988;8.450;2024-01-30T08:23:39;2.90;99.90
21815;DHT22;11069;48.988;8.450;2024-01-30T08:26:05;3.20;99.90
21815;DHT22;11069;48.988;8.450;2024-01-30T08:28:31;3.60;99.90
21815;DHT22;11069;48.988;8.450;2024-01-30T08:30:56;3.90;99.90
21815;DHT22;11069;48.988;8.450;2024-01-30T08:33:22;4.00;99.90
21815;DHT22;11069;48.988;8.450;2024-01-30T08:35:48;4.10;99.90
21815;DHT22;11069;48.988;8.450;2024-01-30T08:38:13;4.30;99.90
21815;DHT22;11069;48.988;8.450;2024-01-30T08:40:39;4.40;99.90
21815;DHT22;11069;48.988;8.450;2024-01-30T08:43:05;4.80;99.90
21815;DHT22;11069;48.988;8.450;2024-01-30T08:45:30;4.90;99.90
21815;DHT22;11069;48.988;8.450;2024-01-30T08:47:56;5.00;99.90
21815;DHT22;11069;48.988;8.450;2024-01-30T08:50:22;4.90;99.90
21815;DHT22;11069;48.988;8.450;2024-01-30T08:52:48;4.80;99.90
21815;DHT22;11069;48.988;8.450;2024-01-30T08:55:13;4.70;99.90
21815;DHT22;11069;48.988;8.450;2024-01-30T08:57:39;4.70;99.90
21815;DHT22;11069;48.988;8.450;2024-01-30T09:00:05;4.70;99.90
21815;DHT22;11069;48.988;8.450;2024-01-30T09:02:32;4.80;99.90
21815;DHT22;11069;48.988;8.450;2024-01-30T09:04:58;4.80;99.90
21815;DHT22;11069;48.988;8.450;2024-01-30T09:07:24;4.80;99.90
21815;DHT22;11069;48.988;8.450;2024-01-30T09:09:49;4.80;99.90
21815;DHT22;11069;48.988;8.450;2024-01-30T09:12:15;4.70;99.90
21815;DHT22;11069;48.988;8.450;2024-01-30T09:14:41;4.70;99.90
21815;DHT22;11069;48.988;8.450;2024-01-30T09:17:07;4.80;99.90
21815;DHT22;11069;48.988;8.450;2024-01-30T09:19:32;4.90;99.90
21815;DHT22;11069;48.988;8.450;2024-01-30T09:21:58;5.00;99.90
21815;DHT22;11069;48.988;8.450;2024-01-30T09:24:24;5.10;99.90
21815;DHT22;11069;48.988;8.450;2024-01-30T09:26:50;5.30;99.90
21815;DHT22;11069;48.988;8.450;2024-01-30T09:29:16;5.30;99.90
21815;DHT22;11069;48.988;8.450;2024-01-30T09:31:47;5.30;99.90
21815;DHT22;11069;48.988;8.450;2024-01-30T09:34:13;5.40;99.90
21815;DHT22;11069;48.988;8.450;2024-01-30T09:36:39;5.60;99.90
21815;DHT22;11069;48.988;8.450;2024-01-30T09:39:05;5.70;99.90
21815;DHT22;11069;48.988;8.450;2024-01-30T09:41:45;5.90;99.90
21815;DHT22;11069;48.988;8.450;2024-01-30T09:44:12;6.20;99.90
21815;DHT22;11069;48.988;8.450;2024-01-30T09:46:39;6.10;99.90
21815;DHT22;11069;48.988;8.450;2024-01-30T09:49:06;6.20;99.90
21815;DHT22;11069;48.988;8.450;2024-01-30T09:51:34;6.40;99.90
21815;DHT22;11069;48.988;8.450;2024-01-30T09:54:00;6.50;99.90
21815;DHT22;11069;48.988;8.450;2024-01-30T09:56:25;6.60;99.90
21815;DHT22;11069;48.988;8.450;2024-01-30T09:58:51;6.80;99.90
21815;DHT22;11069;48.988;8.450;2024-01-30T10:01:17;6.90;99.90
21815;DHT22;11069;48.988;8.450;2024-01-30T10:03:44;7.00;99.90
21815;DHT22;11069;48.988;8.450;2024-01-30T10:06:10;7.10;99.90
21815;DHT22;11069;48.988;8.450;2024-01-30T10:08:36;7.30;99.90
21815;DHT22;11069;48.988;8.450;2024-01-30T10:11:01;7.50;99.90
21815;DHT22;11069;48.988;8.450;2024-01-30T10:13:28;7.60;99.90
21815;DHT22;11069;48.988;8.450;2024-01-30T10:15:54;7.90;99.90
21815;DHT22;11069;48.988;8.450;2024-01-30T10:18:22;7.80;99.90
21815;DHT22;11069;48.988;8.450;2024-01-30T10:20:48;8.10;99.90
21815;DHT22;11069;48.988;8.450;2024-01-30T10:23:16;8.30;99.90
21815;DHT22;11069;48.988;8.450;2024-01-30T10:25:58;8.40;99.90
21815;DHT22;11069;48.988;8.450;2024-01-30T10:28:26;8.50;99.90
21815;DHT22;11069;48.988;8.450;2024-01-30T10:31:03;8.50;99.90
21815;DHT22;11069;48.988;8.450;2024-01-30T10:33:41;8.40;99.90
21815;DHT22;11069;48.988;8.450;2024-01-30T10:36:23;8.30;99.90
21815;DHT22;11069;48.988;8.450;2024-01-30T10:38:55;8.40;99.90
21815;DHT22;11069;48.988;8.450;2024-01-30T10:41:44;8.50;99.90
21815;DHT22;11069;48.988;8.450;2024-01-30T10:44:16;8.40;99.90
21815;DHT22;11069;48.988;8.450;2024-01-30T10:46:47;8.50;99.90
21815;DHT22;11069;48.988;8.450;2024-01-30T10:49:15;8.50;99.90
21815;DHT22;11069;48.988;8.450;2024-01-30T10:51:42;8.90;99.90
21815;DHT22;11069;48.988;8.450;2024-01-30T10:54:09;9.20;99.90
21815;DHT22;11069;48.988;8.450;2024-01-30T10:56:36;9.30;99.90
21815;DHT22;11069;48.988;8.450;2024-01-30T10:59:02;9.60;99.90
21815;DHT22;11069;48.988;8.450;2024-01-30T11:01:30;9.80;99.90
21815;DHT22;11069;48.988;8.450;2024-01-30T11:03:56;10.40;99.90
21815;DHT22;11069;48.988;8.450;2024-01-30T11:06:23;10.70;99.90
21815;DHT22;11069;48.988;8.450;2024-01-30T11:09:05;10.40;99.90
21815;DHT22;11069;48.988;8.450;2024-01-30T11:11:56;10.60;99.90
21815;DHT22;11069;48.988;8.450;2024-01-30T11:14:26;10.80;99.90
21815;DHT22;11069;48.988;8.450;2024-01-30T11:16:52;10.80;99.90
21815;DHT22;11069;48.988;8.450;2024-01-30T11:19:27;11.00;99.90
21815;DHT22;11069;48.988;8.450;2024-01-30T11:21:56;11.50;99.90
21815;DHT22;11069;48.988;8.450;2024-01-30T11:24:24;11.90;99.90
21815;DHT22;11069;48.988;8.450;2024-01-30T11:26:56;12.50;99.90
21815;DHT22;11069;48.988;8.450;2024-01-30T11:29:29;12.60;99.90
21815;DHT22;11069;48.988;8.450;2024-01-30T11:31:57;12.60;99.90
21815;DHT22;11069;48.988;8.450;2024-01-30T11:34:23;12.50;99.90
21815;DHT22;11069;48.988;8.450;2024-01-30T11:36:56;12.20;99.90
21815;DHT22;11069;48.988;8.450;2024-01-30T11:39:25;12.40;99.90
21815;DHT22;11069;48.988;8.450;2024-01-30T11:41:52;13.00;99.90
21815;DHT22;11069;48.988;8.450;2024-01-30T11:44:20;13.50;99.90
21815;DHT22;11069;48.988;8.450;2024-01-30T11:46:48;13.50;99.90
21815;DHT22;11069;48.988;8.450;2024-01-30T11:49:13;13.20;99.90
21815;DHT22;11069;48.988;8.450;2024-01-30T11:51:39;12.70;99.90
21815;DHT22;11069;48.988;8.450;2024-01-30T11:54:05;13.00;99.90
21815;DHT22;11069;48.988;8.450;2024-01-30T11:56:30;13.40;99.90
21815;DHT22;11069;48.988;8.450;2024-01-30T11:58:56;13.60;99.90
21815;DHT22;11069;48.988;8.450;2024-01-30T12:01:22;13.70;99.90
21815;DHT22;11069;48.988;8.450;2024-01-30T12:03:51;14.30;99.90
21815;DHT22;11069;48.988;8.450;2024-01-30T12:06:17;14.70;99.10
21815;DHT22;11069;48.988;8.450;2024-01-30T12:08:42;14.00;99.80
21815;DHT22;11069;48.988;8.450;2024-01-30T12:11:08;13.80;99.90
21815;DHT22;11069;48.988;8.450;2024-01-30T12:13:34;13.10;99.90
21815;DHT22;11069;48.988;8.450;2024-01-30T12:16:00;12.60;99.90
21815;DHT22;11069;48.988;8.450;2024-01-30T12:18:26;12.50;99.90
21815;DHT22;11069;48.988;8.450;2024-01-30T12:21:01;12.60;99.90
21815;DHT22;11069;48.988;8.450;2024-01-30T12:23:28;12.60;99.90
21815;DHT22;11069;48.988;8.450;2024-01-30T12:25:53;12.40;99.90
21815;DHT22;11069;48.988;8.450;2024-01-30T12:28:21;12.40;99.90
21815;DHT22;11069;48.988;8.450;2024-01-30T12:30:47;12.20;99.90
21815;DHT22;11069;48.988;8.450;2024-01-30T12:33:18;12.10;99.90
21815;DHT22;11069;48.988;8.450;2024-01-30T12:35:47;12.20;99.90
21815;DHT22;11069;48.988;8.450;2024-01-30T12:38:14;12.70;99.90
21815;DHT22;11069;48.988;8.450;2024-01-30T12:40:40;12.70;99.90
21815;DHT22;11069;48.988;8.450;2024-01-30T12:43:05;12.70;99.90
21815;DHT22;11069;48.988;8.450;2024-01-30T12:45:31;12.80;99.90
21815;DHT22;11069;48.988;8.450;2024-01-30T12:47:57;12.90;99.90
21815;DHT22;11069;48.988;8.450;2024-01-30T12:50:23;12.70;99.90
21815;DHT22;11069;48.988;8.450;2024-01-30T12:52:49;12.70;99.90
21815;DHT22;11069;48.988;8.450;2024-01-30T12:55:18;12.50;99.90
21815;DHT22;11069;48.988;8.450;2024-01-30T12:57:43;12.70;99.90
21815;DHT22;11069;48.988;8.450;2024-01-30T13:00:09;12.80;99.90
21815;DHT22;11069;48.988;8.450;2024-01-30T13:02:35;13.00;99.90
21815;DHT22;11069;48.988;8.450;2024-01-30T13:05:03;12.80;99.90
21815;DHT22;11069;48.988;8.450;2024-01-30T13:07:29;12.50;99.90
21815;DHT22;11069;48.988;8.450;2024-01-30T13:09:54;12.50;99.90
21815;DHT22;11069;48.988;8.450;2024-01-30T13:12:20;12.20;99.90
21815;DHT22;11069;48.988;8.450;2024-01-30T13:14:46;12.30;99.90
21815;DHT22;11069;48.988;8.450;2024-01-30T13:17:12;12.60;99.90
21815;DHT22;11069;48.988;8.450;2024-01-30T13:19:37;12.70;99.90
21815;DHT22;11069;48.988;8.450;2024-01-30T13:22:03;12.70;99.90
21815;DHT22;11069;48.988;8.450;2024-01-30T13:24:29;12.70;99.90
21815;DHT22;11069;48.988;8.450;2024-01-30T13:26:54;12.90;99.90
21815;DHT22;11069;48.988;8.450;2024-01-30T13:29:20;13.00;99.90
21815;DHT22;11069;48.988;8.450;2024-01-30T13:31:45;12.90;99.90
21815;DHT22;11069;48.988;8.450;2024-01-30T13:34:12;12.80;99.90
21815;DHT22;11069;48.988;8.450;2024-01-30T13:36:39;12.90;99.90
21815;DHT22;11069;48.988;8.450;2024-01-30T13:39:05;13.00;99.90
21815;DHT22;11069;48.988;8.450;2024-01-30T13:41:36;12.70;99.90
21815;DHT22;11069;48.988;8.450;2024-01-30T13:44:01;12.70;99.90
21815;DHT22;11069;48.988;8.450;2024-01-30T13:46:29;12.40;99.90
21815;DHT22;11069;48.988;8.450;2024-01-30T13:48:55;12.20;99.90
21815;DHT22;11069;48.988;8.450;2024-01-30T13:51:20;12.20;99.90
21815;DHT22;11069;48.988;8.450;2024-01-30T13:53:46;12.40;99.90
21815;DHT22;11069;48.988;8.450;2024-01-30T13:56:11;12.40;99.90
21815;DHT22;11069;48.988;8.450;2024-01-30T13:58:37;12.30;99.90
21815;DHT22;11069;48.988;8.450;2024-01-30T14:01:03;12.40;99.90
21815;DHT22;11069;48.988;8.450;2024-01-30T14:03:28;12.30;99.90
21815;DHT22;11069;48.988;8.450;2024-01-30T14:05:54;12.20;99.90
21815;DHT22;11069;48.988;8.450;2024-01-30T14:08:20;11.90;99.90
21815;DHT22;11069;48.988;8.450;2024-01-30T14:10:49;11.80;99.90
21815;DHT22;11069;48.988;8.450;2024-01-30T14:13:14;11.70;99.90
21815;DHT22;11069;48.988;8.450;2024-01-30T14:15:40;11.50;99.90
21815;DHT22;11069;48.988;8.450;2024-01-30T14:18:05;11.50;99.90
21815;DHT22;11069;48.988;8.450;2024-01-30T14:20:33;11.40;99.90
21815;DHT22;11069;48.988;8.450;2024-01-30T14:22:59;11.40;99.90
21815;DHT22;11069;48.988;8.450;2024-01-30T14:25:24;11.40;99.90
21815;DHT22;11069;48.988;8.450;2024-01-30T14:27:50;11.40;99.90
21815;DHT22;11069;48.988;8.450;2024-01-30T14:30:17;11.50;99.90
21815;DHT22;11069;48.988;8.450;2024-01-30T14:32:43;11.40;99.90
21815;DHT22;11069;48.988;8.450;2024-01-30T14:35:10;11.40;99.90
21815;DHT22;11069;48.988;8.450;2024-01-30T14:37:37;11.40;99.90
21815;DHT22;11069;48.988;8.450;2024-01-30T14:40:03;11.40;99.90
21815;DHT22;11069;48.988;8.450;2024-01-30T14:42:29;11.40;99.90
21815;DHT22;11069;48.988;8.450;2024-01-30T14:44:58;11.30;99.90
21815;DHT22;11069;48.988;8.450;2024-01-30T14:47:25;11.30;99.90
21815;DHT22;11069;48.988;8.450;2024-01-30T14:49:51;11.40;99.90
21815;DHT22;11069;48.988;8.450;2024-01-30T14:52:18;11.30;99.90
21815;DHT22;11069;48.988;8.450;2024-01-30T14:54:43;11.20;99.90
21815;DHT22;11069;48.988;8.450;2024-01-30T14:57:10;11.10;99.90
21815;DHT22;11069;48.988;8.450;2024-01-30T14:59:36;11.00;99.90
21815;DHT22;11069;48.988;8.450;2024-01-30T15:02:22;11.00;99.90
21815;DHT22;11069;48.988;8.450;2024-01-30T15:04:48;11.00;99.90
21815;DHT22;11069;48.988;8.450;2024-01-30T15:07:14;11.00;99.90
21815;DHT22;11069;48.988;8.450;2024-01-30T15:09:39;10.90;99.90
21815;DHT22;11069;48.988;8.450;2024-01-30T15:12:05;10.80;99.90
21815;DHT22;11069;48.988;8.450;2024-01-30T15:14:30;10.80;99.90
21815;DHT22;11069;48.988;8.450;2024-01-30T15:16:56;10.80;99.90
21815;DHT22;11069;48.988;8.450;2024-01-30T15:19:22;10.70;99.90
21815;DHT22;11069;48.988;8.450;2024-01-30T15:21:47;10.60;99.90
21815;DHT22;11069;48.988;8.450;2024-01-30T15:24:13;10.60;99.90
21815;DHT22;11069;48.988;8.450;2024-01-30T15:26:41;10.50;99.90
21815;DHT22;11069;48.988;8.450;2024-01-30T15:29:06;10.60;99.90
21815;DHT22;11069;48.988;8.450;2024-01-30T15:31:32;10.50;99.90
21815;DHT22;11069;48.988;8.450;2024-01-30T15:33:58;10.40;99.90